sensor_id;sensor_type;location;lat;lon;timestamp;temperature;humidity
11474;DHT22;5793;52.238;13.438;2023-06-22T00:00:12;17.80;99.90
11474;DHT22;5793;52.238;13.438;2023-06-22T00:02:40;17.80;99.90
11474;DHT22;5793;52.238;13.438;2023-06-22T00:05:08;17.80;99.90
11474;DHT22;5793;52.238;13.438;2023-06-22T00:07:35;17.80;99.90
11474;DHT22;5793;52.238;13.438;2023-06-22T00:10:06;17.80;99.90
11474;DHT22;5793;52.238;13.438;2023-06-22T00:12:34;17.70;99.90
11474;DHT22;5793;52.238;13.438;2023-06-22T00:15:02;17.70;99.90
11474;DHT22;5793;52.238;13.438;2023-06-22T00:17:30;17.70;99.90
11474;DHT22;5793;52.238;13.438;2023-06-22T00:19:58;17.70;99.90
11474;DHT22;5793;52.238;13.438;2023-06-22T00:22:26;17.60;99.90
11474;DHT22;5793;52.238;13.438;2023-06-22T00:24:56;17.60;99.90
11474;DHT22;5793;52.238;13.438;2023-06-22T00:27:25;17.60;99.90
11474;DHT22;5793;52.238;13.438;2023-06-22T00:29:53;17.50;99.90
11474;DHT22;5793;52.238;13.438;2023-06-22T00:32:21;17.50;99.90
11474;DHT22;5793;52.238;13.438;2023-06-22T00:34:48;17.60;99.90
11474;DHT22;5793;52.238;13.438;2023-06-22T00:37:17;17.50;99.90
11474;DHT22;5793;52.238;13.438;2023-06-22T00:39:45;17.50;99.90
11474;DHT22;5793;52.238;13.438;2023-06-22T00:42:13;17.60;99.90
11474;DHT22;5793;52.238;13.438;2023-06-22T00:44:42;17.80;99.90
11474;DHT22;5793;52.238;13.438;2023-06-22T00:47:10;17.90;99.90
11474;DHT22;5793;52.238;13.438;2023-06-22T00:49:39;18.00;99.90
11474;DHT22;5793;52.238;13.438;2023-06-22T00:52:07;18.10;99.90
11474;DHT22;5793;52.238;13.438;2023-06-22T00:54:40;18.10;99.90
11474;DHT22;5793;52.238;13.438;2023-06-22T00:57:12;18.20;99.90
11474;DHT22;5793;52.238;13.438;2023-06-22T00:59:44;18.00;99.90
11474;DHT22;5793;52.238;13.438;2023-06-22T01:02:11;18.10;99.90
11474;DHT22;5793;52.238;13.438;2023-06-22T01:04:40;18.10;99.90
11474;DHT22;5793;52.238;13.438;2023-06-22T01:07:14;18.20;99.90
11474;DHT22;5793;52.238;13.438;2023-06-22T01:09:49;18.20;99.90
11474;DHT22;5793;52.238;13.438;2023-06-22T01:12:19;18.10;99.90
11474;DHT22;5793;52.238;13.438;2023-06-22T01:14:52;18.00;99.90
11474;DHT22;5793;52.238;13.438;2023-06-22T01:17:22;18.00;99.90
11474;DHT22;5793;52.238;13.438;2023-06-22T01:19:52;18.00;99.90
11474;DHT22;5793;52.238;13.438;2023-06-22T01:22:25;18.10;99.90
11474;DHT22;5793;52.238;13.438;2023-06-22T01:25:05;18.20;99.90
11474;DHT22;5793;52.238;13.438;2023-06-22T01:27:40;18.30;99.90
11474;DHT22;5793;52.238;13.438;2023-06-22T01:30:16;18.40;99.90
11474;DHT22;5793;52.238;13.438;2023-06-22T01:32:44;18.50;99.90
11474;DHT22;5793;52.238;13.438;2023-06-22T01:35:12;18.40;99.90
11474;DHT22;5793;52.238;13.438;2023-06-22T01:37:40;18.40;99.90
11474;DHT22;5793;52.238;13.438;2023-06-22T01:40:09;18.50;99.90
11474;DHT22;5793;52.238;13.438;2023-06-22T01:42:37;18.40;99.90
11474;DHT22;5793;52.238;13.438;2023-06-22T01:45:07;18.40;99.90
11474;DHT22;5793;52.238;13.438;2023-06-22T01:47:37;18.60;99.90
11474;DHT22;5793;52.238;13.438;2023-06-22T01:50:06;18.60;99.90
11474;DHT22;5793;52.238;13.438;2023-06-22T01:52:34;18.60;99.90
11474;DHT22;5793;52.238;13.438;2023-06-22T01:55:02;18.50;99.90
11474;DHT22;5793;52.238;13.438;2023-06-22T01:57:32;18.50;99.90
11474;DHT22;5793;52.238;13.438;2023-06-22T02:00:01;18.40;99.90
11474;DHT22;5793;52.238;13.438;2023-06-22T02:02:33;18.30;99.90
11474;DHT22;5793;52.238;13.438;2023-06-22T02:05:07;18.30;99.90
11474;DHT22;5793;52.238;13.438;2023-06-22T02:07:41;18.30;99.90
11474;DHT22;5793;52.238;13.438;2023-06-22T02:10:10;18.40;99.90
11474;DHT22;5793;52.238;13.438;2023-06-22T02:12:42;18.50;99.90
11474;DHT22;5793;52.238;13.438;2023-06-22T02:15:11;18.40;99.90
11474;DHT22;5793;52.238;13.438;2023-06-22T02:17:40;18.40;99.90
11474;DHT22;5793;52.238;13.438;2023-06-22T02:20:14;18.40;99.90
11474;DHT22;5793;52.238;13.438;2023-06-22T02:22:42;18.30;99.90
11474;DHT22;5793;52.238;13.438;2023-06-22T02:25:10;18.40;99.90
11474;DHT22;5793;52.238;13.438;2023-06-22T02:27:38;18.30;99.90
11474;DHT22;5793;52.238;13.438;2023-06-22T02:30:08;18.20;99.90
11474;DHT22;5793;52.238;13.438;2023-06-22T02:32:36;18.20;99.90
11474;DHT22;5793;52.238;13.438;2023-06-22T02:35:08;18.20;99.90
11474;DHT22;5793;52.238;13.438;2023-06-22T02:37:38;18.10;99.90
11474;DHT22;5793;52.238;13.438;2023-06-22T02:40:09;18.20;99.90
11474;DHT22;5793;52.238;13.438;2023-06-22T02:42:37;18.30;99.90
11474;DHT22;5793;52.238;13.438;2023-06-22T02:45:06;18.30;99.90
11474;DHT22;5793;52.238;13.438;2023-06-22T02:47:34;18.40;99.90
11474;DHT22;5793;52.238;13.438;2023-06-22T02:50:02;18.60;99.90
11474;DHT22;5793;52.238;13.438;2023-06-22T02:52:29;18.70;99.90
11474;DHT22;5793;52.238;13.438;2023-06-22T02:54:59;18.60;99.90
11474;DHT22;5793;52.238;13.438;2023-06-22T02:57:26;18.60;99.90
11474;DHT22;5793;52.238;13.438;2023-06-22T02:59:54;18.60;99.90
11474;DHT22;5793;52.238;13.438;2023-06-22T03:02:22;18.50;99.90
11474;DHT22;5793;52.238;13.438;2023-06-22T03:04:50;18.50;99.90
11474;DHT22;5793;52.238;13.438;2023-06-22T03:07:20;18.60;99.90
11474;DHT22;5793;52.238;13.438;2023-06-22T03:09:48;18.60;99.90
11474;DHT22;5793;52.238;13.438;2023-06-22T03:12:17;18.70;99.90
11474;DHT22;5793;52.238;13.438;2023-06-22T03:14:44;18.70;99.90
11474;DHT22;5793;52.238;13.438;2023-06-22T03:17:12;18.70;99.90
11474;DHT22;5793;52.238;13.438;2023-06-22T03:19:40;18.60;99.90
11474;DHT22;5793;52.238;13.438;2023-06-22T03:22:08;18.50;99.90
11474;DHT22;5793;52.238;13.438;2023-06-22T03:24:39;18.40;99.90
11474;DHT22;5793;52.238;13.438;2023-06-22T03:27:07;18.30;99.90
11474;DHT22;5793;52.238;13.438;2023-06-22T03:29:36;18.40;99.90
11474;DHT22;5793;52.238;13.438;2023-06-22T03:32:05;18.40;99.90
11474;DHT22;5793;52.238;13.438;2023-06-22T03:34:33;18.40;99.90
11474;DHT22;5793;52.238;13.438;2023-06-22T03:37:04;18.60;99.90
11474;DHT22;5793;52.238;13.438;2023-06-22T03:39:32;18.60;99.90
11474;DHT22;5793;52.238;13.438;2023-06-22T03:41:59;18.50;99.90
11474;DHT22;5793;52.238;13.438;2023-06-22T03:44:27;18.50;99.90
11474;DHT22;5793;52.238;13.438;2023-06-22T03:46:56;18.50;99.90
11474;DHT22;5793;52.238;13.438;2023-06-22T03:49:24;18.40;99.90
11474;DHT22;5793;52.238;13.438;2023-06-22T03:51:52;18.40;99.90
11474;DHT22;5793;52.238;13.438;2023-06-22T03:54:20;18.40;99.90
11474;DHT22;5793;52.238;13.438;2023-06-22T03:56:48;18.60;99.90
11474;DHT22;5793;52.238;13.438;2023-06-22T03:59:15;18.60;99.90
11474;DHT22;5793;52.238;13.438;2023-06-22T04:01:43;18.60;99.90
11474;DHT22;5793;52.238;13.438;2023-06-22T04:04:12;18.50;99.90
11474;DHT22;5793;52.238;13.438;2023-06-22T04:06:40;18.50;99.90
11474;DHT22;5793;52.238;13.438;2023-06-22T04:09:08;18.50;99.90
11474;DHT22;5793;52.238;13.438;2023-06-22T04:11:36;18.60;99.90
11474;DHT22;5793;52.238;13.438;2023-06-22T04:14:03;18.70;99.90
11474;DHT22;5793;52.238;13.438;2023-06-22T04:16:31;18.80;99.90
11474;DHT22;5793;52.238;13.438;2023-06-22T04:18:59;18.90;99.90
11474;DHT22;5793;52.238;13.438;2023-06-22T04:21:28;18.90;99.90
11474;DHT22;5793;52.238;13.438;2023-06-22T04:23:56;19.10;99.90
11474;DHT22;5793;52.238;13.438;2023-06-22T04:26:24;19.30;99.90
11474;DHT22;5793;52.238;13.438;2023-06-22T04:28:52;19.40;99.90
11474;DHT22;5793;52.238;13.438;2023-06-22T04:31:22;19.50;99.90
11474;DHT22;5793;52.238;13.438;2023-06-22T04:34:00;19.60;99.90
11474;DHT22;5793;52.238;13.438;2023-06-22T04:36:35;19.70;99.90
11474;DHT22;5793;52.238;13.438;2023-06-22T04:39:05;19.80;99.90
11474;DHT22;5793;52.238;13.438;2023-06-22T04:41:36;19.90;99.90
11474;DHT22;5793;52.238;13.438;2023-06-22T04:44:09;20.00;99.90
11474;DHT22;5793;52.238;13.438;2023-06-22T04:46:38;20.20;99.90
11474;DHT22;5793;52.238;13.438;2023-06-22T04:49:06;20.20;99.90
11474;DHT22;5793;52.238;13.438;2023-06-22T04:51:41;20.40;99.90
11474;DHT22;5793;52.238;13.438;2023-06-22T04:54:10;20.70;99.90
11474;DHT22;5793;52.238;13.438;2023-06-22T04:56:38;20.80;99.90
11474;DHT22;5793;52.238;13.438;2023-06-22T04:59:07;20.90;99.90
11474;DHT22;5793;52.238;13.438;2023-06-22T05:01:39;21.00;99.90
11474;DHT22;5793;52.238;13.438;2023-06-22T05:04:07;21.10;99.90
11474;DHT22;5793;52.238;13.438;2023-06-22T05:06:35;21.20;99.90
11474;DHT22;5793;52.238;13.438;2023-06-22T05:09:07;21.30;99.90
11474;DHT22;5793;52.238;13.438;2023-06-22T05:11:35;21.30;99.90
11474;DHT22;5793;52.238;13.438;2023-06-22T05:14:03;21.40;99.90
11474;DHT22;5793;52.238;13.438;2023-06-22T05:16:31;21.30;99.90
11474;DHT22;5793;52.238;13.438;2023-06-22T05:18:59;21.30;99.90
11474;DHT22;5793;52.238;13.438;2023-06-22T05:21:31;21.20;99.90
11474;DHT22;5793;52.238;13.438;2023-06-22T05:23:59;21.30;99.90
11474;DHT22;5793;52.238;13.438;2023-06-22T05:26:31;21.30;99.90
11474;DHT22;5793;52.238;13.438;2023-06-22T05:29:00;21.30;99.90
11474;DHT22;5793;52.238;13.438;2023-06-22T05:31:29;21.40;99.90
11474;DHT22;5793;52.238;13.438;2023-06-22T05:33:57;21.60;99.90
11474;DHT22;5793;52.238;13.438;2023-06-22T05:36:26;21.80;99.90
11474;DHT22;5793;52.238;13.438;2023-06-22T05:38:56;21.90;99.90
11474;DHT22;5793;52.238;13.438;2023-06-22T05:41:24;22.20;99.90
11474;DHT22;5793;52.238;13.438;2023-06-22T05:43:53;22.50;99.90
11474;DHT22;5793;52.238;13.438;2023-06-22T05:46:21;22.80;99.90
11474;DHT22;5793;52.238;13.438;2023-06-22T05:48:49;23.00;99.90
11474;DHT22;5793;52.238;13.438;2023-06-22T05:51:16;23.20;99.90
11474;DHT22;5793;52.238;13.438;2023-06-22T05:53:44;23.40;99.90
11474;DHT22;5793;52.238;13.438;2023-06-22T05:56:16;23.50;99.90
11474;DHT22;5793;52.238;13.438;2023-06-22T05:58:45;23.50;99.90
11474;DHT22;5793;52.238;13.438;2023-06-22T06:01:14;23.70;99.90
11474;DHT22;5793;52.238;13.438;2023-06-22T06:03:43;23.70;99.90
11474;DHT22;5793;52.238;13.438;2023-06-22T06:06:11;23.80;99.90
11474;DHT22;5793;52.238;13.438;2023-06-22T06:08:39;23.70;99.90
11474;DHT22;5793;52.238;13.438;2023-06-22T06:11:07;23.60;99.90
11474;DHT22;5793;52.238;13.438;2023-06-22T06:13:35;23.50;99.90
11474;DHT22;5793;52.238;13.438;2023-06-22T06:16:03;23.60;99.90
11474;DHT22;5793;52.238;13.438;2023-06-22T06:18:32;23.70;99.90
11474;DHT22;5793;52.238;13.438;2023-06-22T06:21:00;23.90;99.90
11474;DHT22;5793;52.238;13.438;2023-06-22T06:23:27;24.00;99.90
11474;DHT22;5793;52.238;13.438;2023-06-22T06:25:55;24.10;99.90
11474;DHT22;5793;52.238;13.438;2023-06-22T06:28:24;24.20;99.90
11474;DHT22;5793;52.238;13.438;2023-06-22T06:30:52;24.40;99.90
11474;DHT22;5793;52.238;13.438;2023-06-22T06:33:20;24.60;99.90
11474;DHT22;5793;52.238;13.438;2023-06-22T06:35:52;24.90;99.90
11474;DHT22;5793;52.238;13.438;2023-06-22T06:38:22;24.90;99.90
11474;DHT22;5793;52.238;13.438;2023-06-22T06:40:50;24.90;99.90
11474;DHT22;5793;52.238;13.438;2023-06-22T06:43:18;24.80;99.90
11474;DHT22;5793;52.238;13.438;2023-06-22T06:45:46;24.70;99.90
11474;DHT22;5793;52.238;13.438;2023-06-22T06:48:18;24.70;99.90
11474;DHT22;5793;52.238;13.438;2023-06-22T06:50:45;24.70;99.90
11474;DHT22;5793;52.238;13.438;2023-06-22T06:53:15;24.60;99.90
11474;DHT22;5793;52.238;13.438;2023-06-22T06:55:43;24.70;99.90
11474;DHT22;5793;52.238;13.438;2023-06-22T06:58:12;24.80;99.90
11474;DHT22;5793;52.238;13.438;2023-06-22T07:00:40;24.80;99.90
11474;DHT22;5793;52.238;13.438;2023-06-22T07:03:08;24.80;99.90
11474;DHT22;5793;52.238;13.438;2023-06-22T07:05:36;24.80;99.90
11474;DHT22;5793;52.238;13.438;2023-06-22T07:08:04;24.90;99.90
11474;DHT22;5793;52.238;13.438;2023-06-22T07:10:33;25.10;99.90
11474;DHT22;5793;52.238;13.438;2023-06-22T07:13:01;25.20;99.90
11474;DHT22;5793;52.238;13.438;2023-06-22T07:15:29;25.40;99.90
11474;DHT22;5793;52.238;13.438;2023-06-22T07:17:57;25.80;99.90
11474;DHT22;5793;52.238;13.438;2023-06-22T07:20:25;25.90;99.90
11474;DHT22;5793;52.238;13.438;2023-06-22T07:22:53;26.30;99.90
11474;DHT22;5793;52.238;13.438;2023-06-22T07:25:21;26.50;99.90
11474;DHT22;5793;52.238;13.438;2023-06-22T07:27:59;26.60;99.90
11474;DHT22;5793;52.238;13.438;2023-06-22T07:30:28;26.70;99.90
11474;DHT22;5793;52.238;13.438;2023-06-22T07:32:57;26.80;99.90
11474;DHT22;5793;52.238;13.438;2023-06-22T07:35:25;26.80;99.90
11474;DHT22;5793;52.238;13.438;2023-06-22T07:37:53;26.70;99.90
11474;DHT22;5793;52.238;13.438;2023-06-22T07:40:21;26.80;99.90
11474;DHT22;5793;52.238;13.438;2023-06-22T07:42:49;27.00;99.90
11474;DHT22;5793;52.238;13.438;2023-06-22T07:45:19;27.10;99.90
11474;DHT22;5793;52.238;13.438;2023-06-22T07:47:48;26.90;99.90
11474;DHT22;5793;52.238;13.438;2023-06-22T07:50:16;26.90;99.90
11474;DHT22;5793;52.238;13.438;2023-06-22T07:52:43;26.70;99.90
11474;DHT22;5793;52.238;13.438;2023-06-22T07:55:12;26.70;99.90
11474;DHT22;5793;52.238;13.438;2023-06-22T07:57:39;26.80;99.90
11474;DHT22;5793;52.238;13.438;2023-06-22T08:00:09;26.70;99.90
11474;DHT22;5793;52.238;13.438;2023-06-22T08:02:41;26.70;99.90
11474;DHT22;5793;52.238;13.438;2023-06-22T08:05:10;26.80;99.90
11474;DHT22;5793;52.238;13.438;2023-06-22T08:07:41;26.60;99.90
11474;DHT22;5793;52.238;13.438;2023-06-22T08:10:14;26.50;99.90
11474;DHT22;5793;52.238;13.438;2023-06-22T08:12:42;26.30;99.90
11474;DHT22;5793;52.238;13.438;2023-06-22T08:15:09;26.20;99.90
11474;DHT22;5793;52.238;13.438;2023-06-22T08:17:37;26.10;99.90
11474;DHT22;5793;52.238;13.438;2023-06-22T08:20:08;26.10;99.90
11474;DHT22;5793;52.238;13.438;2023-06-22T08:22:38;26.00;99.90
11474;DHT22;5793;52.238;13.438;2023-06-22T08:25:07;26.00;99.90
11474;DHT22;5793;52.238;13.438;2023-06-22T08:27:35;26.10;99.90
11474;DHT22;5793;52.238;13.438;2023-06-22T08:30:04;26.00;99.90
11474;DHT22;5793;52.238;13.438;2023-06-22T08:32:32;26.00;99.90
11474;DHT22;5793;52.238;13.438;2023-06-22T08:35:01;26.00;99.90
11474;DHT22;5793;52.238;13.438;2023-06-22T08:37:30;26.00;99.90
11474;DHT22;5793;52.238;13.438;2023-06-22T08:39:59;26.10;99.90
11474;DHT22;5793;52.238;13.438;2023-06-22T08:42:27;26.40;99.90
11474;DHT22;5793;52.238;13.438;2023-06-22T08:44:55;26.60;99.90
11474;DHT22;5793;52.238;13.438;2023-06-22T08:47:23;26.80;99.90
11474;DHT22;5793;52.238;13.438;2023-06-22T08:49:51;26.90;99.90
11474;DHT22;5793;52.238;13.438;2023-06-22T08:52:19;27.10;99.90
11474;DHT22;5793;52.238;13.438;2023-06-22T08:54:49;27.00;99.90
11474;DHT22;5793;52.238;13.438;2023-06-22T08:57:17;27.00;99.90
11474;DHT22;5793;52.238;13.438;2023-06-22T08:59:45;27.00;99.90
11474;DHT22;5793;52.238;13.438;2023-06-22T09:02:13;26.90;99.90
11474;DHT22;5793;52.238;13.438;2023-06-22T09:04:40;27.10;99.90
11474;DHT22;5793;52.238;13.438;2023-06-22T09:07:09;27.30;99.90
11474;DHT22;5793;52.238;13.438;2023-06-22T09:09:38;27.00;99.90
11474;DHT22;5793;52.238;13.438;2023-06-22T09:12:08;27.10;99.90
11474;DHT22;5793;52.238;13.438;2023-06-22T09:14:36;27.20;99.90
11474;DHT22;5793;52.238;13.438;2023-06-22T09:17:05;27.20;99.90
11474;DHT22;5793;52.238;13.438;2023-06-22T09:19:32;27.10;99.90
11474;DHT22;5793;52.238;13.438;2023-06-22T09:22:00;27.20;99.90
11474;DHT22;5793;52.238;13.438;2023-06-22T09:24:28;27.40;99.90
11474;DHT22;5793;52.238;13.438;2023-06-22T09:26:56;27.40;99.90
11474;DHT22;5793;52.238;13.438;2023-06-22T09:29:25;27.50;99.90
11474;DHT22;5793;52.238;13.438;2023-06-22T09:31:53;27.70;99.90
11474;DHT22;5793;52.238;13.438;2023-06-22T09:34:22;27.80;99.90
11474;DHT22;5793;52.238;13.438;2023-06-22T09:36:50;27.90;99.90
11474;DHT22;5793;52.238;13.438;2023-06-22T09:39:18;28.10;99.90
11474;DHT22;5793;52.238;13.438;2023-06-22T09:41:46;28.20;99.90
11474;DHT22;5793;52.238;13.438;2023-06-22T09:44:14;28.10;99.90
11474;DHT22;5793;52.238;13.438;2023-06-22T09:46:43;28.00;99.90
11474;DHT22;5793;52.238;13.438;2023-06-22T09:49:11;28.00;99.90
11474;DHT22;5793;52.238;13.438;2023-06-22T09:51:39;27.80;99.90
11474;DHT22;5793;52.238;13.438;2023-06-22T09:54:06;27.90;99.90
11474;DHT22;5793;52.238;13.438;2023-06-22T09:56:34;27.80;99.90
11474;DHT22;5793;52.238;13.438;2023-06-22T09:59:04;27.80;99.90
11474;DHT22;5793;52.238;13.438;2023-06-22T10:01:45;27.80;99.90
11474;DHT22;5793;52.238;13.438;2023-06-22T10:04:13;27.90;99.90
11474;DHT22;5793;52.238;13.438;2023-06-22T10:06:41;28.00;99.90
11474;DHT22;5793;52.238;13.438;2023-06-22T10:09:09;28.00;99.90
11474;DHT22;5793;52.238;13.438;2023-06-22T10:11:37;28.20;99.90
11474;DHT22;5793;52.238;13.438;2023-06-22T10:14:05;28.40;99.90
11474;DHT22;5793;52.238;13.438;2023-06-22T10:16:33;28.50;99.90
11474;DHT22;5793;52.238;13.438;2023-06-22T10:19:03;28.40;99.90
11474;DHT22;5793;52.238;13.438;2023-06-22T10:21:31;28.40;99.90
11474;DHT22;5793;52.238;13.438;2023-06-22T10:23:59;28.40;99.90
11474;DHT22;5793;52.238;13.438;2023-06-22T10:26:32;28.60;99.90
11474;DHT22;5793;52.238;13.438;2023-06-22T10:29:01;28.80;99.90
11474;DHT22;5793;52.238;13.438;2023-06-22T10:31:41;29.00;99.90
11474;DHT22;5793;52.238;13.438;2023-06-22T10:34:11;29.30;99.90
11474;DHT22;5793;52.238;13.438;2023-06-22T10:36:38;29.60;99.90
11474;DHT22;5793;52.238;13.438;2023-06-22T10:39:06;29.90;99.90
11474;DHT22;5793;52.238;13.438;2023-06-22T10:41:35;30.30;99.90
11474;DHT22;5793;52.238;13.438;2023-06-22T10:44:03;30.60;99.90
11474;DHT22;5793;52.238;13.438;2023-06-22T10:46:31;31.00;99.90
11474;DHT22;5793;52.238;13.438;2023-06-22T10:48:59;31.50;99.90
11474;DHT22;5793;52.238;13.438;2023-06-22T10:51:28;32.50;95.80
11474;DHT22;5793;52.238;13.438;2023-06-22T10:53:56;33.60;94.70
11474;DHT22;5793;52.238;13.438;2023-06-22T10:56:23;34.40;88.80
11474;DHT22;5793;52.238;13.438;2023-06-22T10:58:51;35.10;79.40
11474;DHT22;5793;52.238;13.438;2023-06-22T11:01:20;35.40;77.90
11474;DHT22;5793;52.238;13.438;2023-06-22T11:04:01;35.50;77.30
11474;DHT22;5793;52.238;13.438;2023-06-22T11:06:31;35.30;77.40
11474;DHT22;5793;52.238;13.438;2023-06-22T11:08:59;35.80;73.10
11474;DHT22;5793;52.238;13.438;2023-06-22T11:11:30;36.30;70.30
11474;DHT22;5793;52.238;13.438;2023-06-22T11:13:58;37.90;68.20
11474;DHT22;5793;52.238;13.438;2023-06-22T11:16:26;37.80;66.40
11474;DHT22;5793;52.238;13.438;2023-06-22T11:18:54;37.50;64.10
11474;DHT22;5793;52.238;13.438;2023-06-22T11:21:22;36.50;66.60
11474;DHT22;5793;52.238;13.438;2023-06-22T11:23:51;36.20;66.80
11474;DHT22;5793;52.238;13.438;2023-06-22T11:26:19;36.30;66.40
11474;DHT22;5793;52.238;13.438;2023-06-22T11:28:48;35.40;66.40
11474;DHT22;5793;52.238;13.438;2023-06-22T11:31:15;34.70;68.40
11474;DHT22;5793;52.238;13.438;2023-06-22T11:33:52;34.10;72.40
11474;DHT22;5793;52.238;13.438;2023-06-22T11:36:20;33.40;73.10
11474;DHT22;5793;52.238;13.438;2023-06-22T11:38:48;33.10;70.50
11474;DHT22;5793;52.238;13.438;2023-06-22T11:41:18;33.10;71.40
11474;DHT22;5793;52.238;13.438;2023-06-22T11:43:46;32.70;71.80
11474;DHT22;5793;52.238;13.438;2023-06-22T11:46:13;32.30;75.90
11474;DHT22;5793;52.238;13.438;2023-06-22T11:48:41;32.20;72.00
11474;DHT22;5793;52.238;13.438;2023-06-22T11:51:09;32.20;70.30
11474;DHT22;5793;52.238;13.438;2023-06-22T11:53:37;31.90;75.00
11474;DHT22;5793;52.238;13.438;2023-06-22T11:56:05;32.00;73.70
11474;DHT22;5793;52.238;13.438;2023-06-22T11:58:36;32.10;74.50
11474;DHT22;5793;52.238;13.438;2023-06-22T12:01:04;32.20;75.20
11474;DHT22;5793;52.238;13.438;2023-06-22T12:03:31;32.00;78.10
11474;DHT22;5793;52.238;13.438;2023-06-22T12:06:00;31.80;73.60
11474;DHT22;5793;52.238;13.438;2023-06-22T12:08:28;31.80;72.50
11474;DHT22;5793;52.238;13.438;2023-06-22T12:10:55;31.90;75.10
11474;DHT22;5793;52.238;13.438;2023-06-22T12:13:23;31.80;78.50
11474;DHT22;5793;52.238;13.438;2023-06-22T12:15:54;31.50;74.80
11474;DHT22;5793;52.238;13.438;2023-06-22T12:18:21;31.10;73.90
11474;DHT22;5793;52.238;13.438;2023-06-22T12:20:49;31.20;73.70
11474;DHT22;5793;52.238;13.438;2023-06-22T12:23:17;31.30;76.80
11474;DHT22;5793;52.238;13.438;2023-06-22T12:25:46;31.20;74.70
11474;DHT22;5793;52.238;13.438;2023-06-22T12:28:14;31.30;75.60
11474;DHT22;5793;52.238;13.438;2023-06-22T12:30:42;31.30;72.30
11474;DHT22;5793;52.238;13.438;2023-06-22T12:33:11;31.40;74.40
11474;DHT22;5793;52.238;13.438;2023-06-22T12:35:39;31.40;75.10
11474;DHT22;5793;52.238;13.438;2023-06-22T12:38:07;31.20;74.00
11474;DHT22;5793;52.238;13.438;2023-06-22T12:40:35;31.00;73.90
11474;DHT22;5793;52.238;13.438;2023-06-22T12:43:03;31.00;76.00
11474;DHT22;5793;52.238;13.438;2023-06-22T12:45:31;30.90;74.30
11474;DHT22;5793;52.238;13.438;2023-06-22T12:48:00;31.00;77.20
11474;DHT22;5793;52.238;13.438;2023-06-22T12:50:29;31.10;74.40
11474;DHT22;5793;52.238;13.438;2023-06-22T12:52:58;30.90;74.90
11474;DHT22;5793;52.238;13.438;2023-06-22T12:55:26;30.90;73.70
11474;DHT22;5793;52.238;13.438;2023-06-22T12:57:54;30.80;74.80
11474;DHT22;5793;52.238;13.438;2023-06-22T13:00:22;30.70;74.60
11474;DHT22;5793;52.238;13.438;2023-06-22T13:02:50;30.70;75.80
11474;DHT22;5793;52.238;13.438;2023-06-22T13:05:20;30.70;75.00
11474;DHT22;5793;52.238;13.438;2023-06-22T13:07:49;30.80;76.20
11474;DHT22;5793;52.238;13.438;2023-06-22T13:10:17;30.90;75.90
11474;DHT22;5793;52.238;13.438;2023-06-22T13:12:45;30.90;76.80
11474;DHT22;5793;52.238;13.438;2023-06-22T13:15:13;30.90;76.00
11474;DHT22;5793;52.238;13.438;2023-06-22T13:17:41;30.80;76.90
11474;DHT22;5793;52.238;13.438;2023-06-22T13:20:09;30.90;74.90
11474;DHT22;5793;52.238;13.438;2023-06-22T13:22:37;30.90;75.40
11474;DHT22;5793;52.238;13.438;2023-06-22T13:25:10;30.70;78.50
11474;DHT22;5793;52.238;13.438;2023-06-22T13:27:40;30.70;76.50
11474;DHT22;5793;52.238;13.438;2023-06-22T13:30:08;30.80;75.50
11474;DHT22;5793;52.238;13.438;2023-06-22T13:32:40;30.80;74.20
11474;DHT22;5793;52.238;13.438;2023-06-22T13:35:09;30.60;74.50
11474;DHT22;5793;52.238;13.438;2023-06-22T13:37:37;30.60;75.90
11474;DHT22;5793;52.238;13.438;2023-06-22T13:40:06;30.70;75.60
11474;DHT22;5793;52.238;13.438;2023-06-22T13:42:36;30.70;77.70
11474;DHT22;5793;52.238;13.438;2023-06-22T13:45:04;30.50;76.60
11474;DHT22;5793;52.238;13.438;2023-06-22T13:47:32;30.20;76.80
11474;DHT22;5793;52.238;13.438;2023-06-22T13:50:00;30.30;77.70
11474;DHT22;5793;52.238;13.438;2023-06-22T13:52:28;30.20;75.60
11474;DHT22;5793;52.238;13.438;2023-06-22T13:54:56;30.30;76.70
11474;DHT22;5793;52.238;13.438;2023-06-22T13:57:24;30.40;76.20
11474;DHT22;5793;52.238;13.438;2023-06-22T13:59:53;30.40;77.20
11474;DHT22;5793;52.238;13.438;2023-06-22T14:02:21;30.40;79.40
11474;DHT22;5793;52.238;13.438;2023-06-22T14:04:49;30.40;81.20
11474;DHT22;5793;52.238;13.438;2023-06-22T14:07:17;30.40;77.70
11474;DHT22;5793;52.238;13.438;2023-06-22T14:09:47;30.50;77.80
11474;DHT22;5793;52.238;13.438;2023-06-22T14:12:16;30.50;77.00
11474;DHT22;5793;52.238;13.438;2023-06-22T14:14:45;30.40;77.40
11474;DHT22;5793;52.238;13.438;2023-06-22T14:17:14;30.50;77.70
11474;DHT22;5793;52.238;13.438;2023-06-22T14:19:42;30.60;75.50
11474;DHT22;5793;52.238;13.438;2023-06-22T14:22:10;30.60;76.80
11474;DHT22;5793;52.238;13.438;2023-06-22T14:24:38;30.60;78.20
11474;DHT22;5793;52.238;13.438;2023-06-22T14:27:06;30.40;76.10
11474;DHT22;5793;52.238;13.438;2023-06-22T14:29:35;30.40;75.20
11474;DHT22;5793;52.238;13.438;2023-06-22T14:32:03;30.40;77.30
11474;DHT22;5793;52.238;13.438;2023-06-22T14:34:34;30.40;77.30
11474;DHT22;5793;52.238;13.438;2023-06-22T14:37:06;30.40;75.50
11474;DHT22;5793;52.238;13.438;2023-06-22T14:39:34;30.10;77.50
11474;DHT22;5793;52.238;13.438;2023-06-22T14:42:02;30.00;76.50
11474;DHT22;5793;52.238;13.438;2023-06-22T14:44:30;30.00;77.50
11474;DHT22;5793;52.238;13.438;2023-06-22T14:46:58;30.10;77.60
11474;DHT22;5793;52.238;13.438;2023-06-22T14:49:26;30.10;78.30
11474;DHT22;5793;52.238;13.438;2023-06-22T14:51:55;30.20;78.70
11474;DHT22;5793;52.238;13.438;2023-06-22T14:54:23;30.00;80.20
11474;DHT22;5793;52.238;13.438;2023-06-22T14:56:51;30.20;81.50
11474;DHT22;5793;52.238;13.438;2023-06-22T14:59:19;30.30;79.20
11474;DHT22;5793;52.238;13.438;2023-06-22T15:01:46;30.10;78.20
11474;DHT22;5793;52.238;13.438;2023-06-22T15:04:15;30.20;77.60
11474;DHT22;5793;52.238;13.438;2023-06-22T15:06:42;30.20;78.30
11474;DHT22;5793;52.238;13.438;2023-06-22T15:09:12;30.20;77.10
11474;DHT22;5793;52.238;13.438;2023-06-22T15:11:40;30.10;76.60
11474;DHT22;5793;52.238;13.438;2023-06-22T15:14:07;30.00;75.70
11474;DHT22;5793;52.238;13.438;2023-06-22T15:16:37;30.10;76.60
11474;DHT22;5793;52.238;13.438;2023-06-22T15:19:05;30.10;76.20
11474;DHT22;5793;52.238;13.438;2023-06-22T15:21:33;30.10;77.70
11474;DHT22;5793;52.238;13.438;2023-06-22T15:24:01;30.10;78.00
11474;DHT22;5793;52.238;13.438;2023-06-22T15:26:30;30.20;77.60
11474;DHT22;5793;52.238;13.438;2023-06-22T15:28:57;30.10;77.90
11474;DHT22;5793;52.238;13.438;2023-06-22T15:31:26;30.10;76.50
11474;DHT22;5793;52.238;13.438;2023-06-22T15:33:54;30.10;77.20
11474;DHT22;5793;52.238;13.438;2023-06-22T15:36:22;29.90;78.20
11474;DHT22;5793;52.238;13.438;2023-06-22T15:38:50;29.80;79.90